Rachel, Nevada Weather observations

Data are for observation ending at time listed.
 Day   Time    Ave.   Ave.  Ave.  Vector   Max.   Stn.    Total    Solar   Ave.  
  of    of     Air    Rel.  Wind   Wind    Wind   Baro.  Precip.   Rad.    Soil  
Year   Day     Temp.  Hum.  Speed  Dir.    Gust   Pres.                    Temp. 
2026   (PST)    F      %     mph   deg.    mph     mb.     in.     W/m2     F   
------------------------------------------------------------------------------
 121   21:30   50.6    25    3.2   254      4.2   850.5    0.00       0    62.8
 121   21:40   48.4    29    5.3   211      6.8   850.6    0.00       0    62.0
 121   21:50   47.7    28    6.5   208      8.5   850.8    0.00       0    62.5
 121   22:00   49.1    26    4.1   235      6.5   850.8    0.00       0    62.4
 121   22:10   47.9    27    3.2   245      6.4   850.8    0.00       0    61.8
 121   22:20   48.2    27    3.9   246      6.1   850.6    0.00       0    61.8
 121   22:30   48.7    28    3.4   238      6.6   850.3    0.00       0    61.4
 121   22:40   46.4    30    4.4   326      8.4   850.4    0.00       0    61.3
 121   22:50   42.7    38    3.0   322      5.0   850.4    0.00       0    61.2
 121   23:00   43.9    37    2.2   291      5.6   850.4    0.00       0    61.1
 121   23:10   45.6    35    2.3   237      4.4   850.3    0.00       0    61.0
 121   23:20   44.4    34    1.4   226      4.0   850.9    0.00       0    60.7
 121   23:30   44.2    35    3.5   220      5.2   851.3    0.00       0    60.6
 121   23:40   43.9    35    3.4   229      5.1   851.0    0.00       0    60.2
 121   23:50   43.8    34    2.5   246      4.2   851.0    0.00       0    60.1
 122    0:00   42.6    34    1.8   244      3.7   850.7    0.00       0    59.9
 122    0:10   43.2    33    3.2   214      4.2   851.0    0.00       0    59.8
 122    0:20   43.9    33    3.2   257      4.3   851.1    0.00       0    59.8
 122    0:30   43.1    33    2.9   231      4.5   850.7    0.00       0    59.4
 122    0:40   42.9    34    3.3   214      5.5   850.6    0.00       0    59.3
 122    0:50   42.8    35    4.0   226      5.5   850.4    0.00       0    58.9
 122    1:00   43.2    35    2.4   244      5.5   850.4    0.00       0    58.9
 122    1:10   43.0    36    1.8   242      3.7   850.2    0.00       0    58.7
 122    1:20   42.6    35    2.7   199      4.9   850.2    0.00       0    58.6
 122    1:30   42.4    35    3.3   186      4.2   850.1    0.00       0    58.5
 122    1:40   42.1    35    3.5   174      5.0   850.0    0.00       0    58.2
 122    1:50   41.2    36    3.4   182      5.2   850.1    0.00       0    58.1
 122    2:00   41.6    36    2.5   217      4.0   850.2    0.00       0    58.0
 122    2:10   41.1    36    3.3   225      6.1   850.6    0.00       0    57.7
 122    2:20   41.5    37    4.2   246      6.4   850.8    0.00       0    57.7
 122    2:30   40.9    38    4.2   222      5.9   850.8    0.00       0    57.6
 122    2:40   40.7    38    5.1   215      6.1   850.8    0.00       0    57.2
 122    2:50   40.8    37    4.7   205      6.9   850.8    0.00       0    57.1
 122    3:00   40.9    37    5.2   209      6.7   850.8    0.00       0    57.1
 122    3:10   40.3    37    4.1   203      5.4   850.8    0.00       0    56.9
 122    3:20   39.3    38    2.9   192      6.1   850.8    0.00       0    56.9
 122    3:30   37.6    41    0.8   182      2.0   850.8    0.00       0    56.7
 122    3:40   37.7    41    0.3   188      2.2   850.7    0.00       0    56.6
 122    3:50   38.2    40    1.3   159      2.3   850.6    0.00       0    56.4
 122    4:00   37.8    40    2.7   150      5.6   850.5    0.00       0    56.4
 122    4:10   37.6    40    2.0   146      4.3   850.5    0.00       0    56.2
 122    4:20   37.4    41    1.0   157      3.5   850.5    0.00       0    56.0
 122    4:30   37.6    41    2.5   152      5.6   850.5    0.00       0    56.0
 122    4:40   37.5    41    3.2   160      4.2   850.6    0.00       1    55.6
 122    4:50   37.6    41    2.1   154      3.0   850.6    0.00       5    55.5
 122    5:00   37.8    41    2.7   149      3.7   850.7    0.00      11    55.4
 122    5:10   38.7    40    2.9   140      3.9   850.7    0.00      31    55.4
 122    5:20   39.4    39    2.2   169      3.3   850.9    0.00      41    55.3
 122    5:30   39.8    39    1.9   201      3.3   851.0    0.00      75    55.3
 122    5:40   41.5    37    2.0   161      3.3   851.3    0.00     104    55.2
 122    5:50   44.6    34    1.7   153      2.3   851.5    0.00     133    54.9
 122    6:00   46.7    32    1.8   147      2.6   851.7    0.00     128    55.1
 122    6:10   48.6    30    1.2   171      2.1   852.0    0.00     159    55.0
 122    6:20   50.0    28    1.2   360      2.2   852.3    0.00     210    55.0
 122    6:30   51.3    26    1.4   330      2.8   852.5    0.00     242    54.9
 122    6:40   50.7    26    2.3   315      3.5   852.8    0.00     261    55.1
 122    6:50   51.1    25    1.9   297      3.9   852.9    0.00     284    55.2
 122    7:00   53.2    24    1.1   258      3.1   852.8    0.00     326    55.3
 122    7:10   55.2    22    1.7   232      3.1   852.3    0.00     388    55.4
 122    7:20   55.6    22    2.0   212      3.3   852.9    0.00     353    55.7
 122    7:30   57.0    21    1.9   228      3.2   852.6    0.00     381    55.9
 122    7:40   58.0    21    1.8   235      3.2   852.8    0.00     421    56.3
 122    7:50   59.3    20    0.8   220      2.6   852.8    0.00     426    56.6
 122    8:00   60.5    20    1.2   348      2.6   853.0    0.00     449    56.9
 122    8:10   60.4    20    1.4    27      5.4   853.2    0.00     455    57.1
 122    8:20   61.3    18    2.4    32      4.5   853.2    0.00     464    57.5
 122    8:30   62.8    17    2.5     8      5.1   853.2    0.00     527    57.9
 122    8:40   64.8    16    2.6    30      5.7   853.6    0.00     555    58.2
 122    8:50   64.9    16    5.3    15      8.6   854.0    0.00     555    58.7
 122    9:00   66.5    15    3.8    10      8.0   854.1    0.00     607    59.3
 122    9:10   67.1    14   12.1   181     20.0   854.1    0.00     611    59.6
 122    9:20   67.0    13   11.9   174     21.9   853.9    0.00     659    59.6
 122    9:30   67.6    13   12.3   169     19.1   853.4    0.00     622    60.6
 122    9:40   66.8    13   11.3   162     18.1   853.5    0.00     342    60.9
 122    9:50   67.3    13   11.6   157     21.1   853.5    0.00     512    61.3
 122   10:00   68.2    12   12.7   173     19.2   853.6    0.00     653    61.7
 122   10:10   68.6    12    8.6   181     20.3   853.6    0.00     686    62.3
 122   10:20   69.2    12   10.7   144     18.7   853.7    0.00     744    62.8
 122   10:30   69.5    12   12.5   177     18.0   853.3    0.00     749    63.2
 122   10:40   69.7    12    9.9   176     18.0   853.3    0.00     694    63.9
 122   10:50   69.1    12    9.5   166     14.8   853.2    0.00     644    64.3
 122   11:00   68.9    12   10.9   166     17.8   853.0    0.00     671    64.8
 122   11:10   69.7    12    6.1   149     11.9   852.8    0.00     781    65.0
 122   11:20   70.5    12    7.4   164     19.4   852.8    0.00     743    65.7
 122   11:30   70.6    12    8.9   168     17.7   852.7    0.00     760    66.4
 122   11:40   70.9    11   10.1   179     17.4   852.6    0.00     767    66.8
 122   11:50   71.1    11   10.4   170     21.5   852.6    0.00     775    67.2
 122   12:00   71.2    11   10.9   173     17.1   852.5    0.00     773    67.5
 122   12:10   70.8    11    4.5   182     11.6   852.5    0.00     755    68.1
 122   12:20   71.7    11    7.6   195     19.9   852.4    0.00     741    68.2
 122   12:30   71.5    11    6.5   161     13.4   852.4    0.00     741    68.5
 122   12:40   71.9    11    8.6   107     13.6   852.3    0.00     706    68.4
 122   12:50   72.1    10    8.9    95     13.4   852.3    0.00     732    68.5
 122   13:00   72.3    10    7.1   102     12.3   852.2    0.00     727    68.2
 122   13:10   72.3    10    5.2    52     14.5   852.0    0.00     675    68.1
 122   13:20   73.2    10    5.5   141     12.5   852.0    0.00     705    68.4
 122   13:30   72.8    10    8.2   130     15.9   852.1    0.00     657    68.1
 122   13:40   73.0    10    7.0   209     16.2   852.1    0.00     655    68.4
 122   13:50   73.9     9    8.9   169     14.2   851.8    0.00     649    68.0
 122   14:00   73.5     9    8.1   140     15.6   852.0    0.00     626    68.0
 122   14:10   72.7     9    5.2   136     10.7   852.1    0.00     601    68.0
 122   14:20   73.4     9    5.0   164     14.0   851.9    0.00     517    68.1
 122   14:30   73.4     9    8.9   178     16.8   851.7    0.00     457    67.8
 122   14:40   73.8     8    3.9   138     10.5   851.4    0.00     431    67.9
 122   14:50   73.2     8    9.2   160     15.1   851.2    0.00     494    68.0
 122   15:00   73.5     8    7.8   142     14.0   851.0    0.00     500    67.9
 122   15:10   73.3     8   10.2   157     19.3   850.9    0.00     458    67.8
 122   15:20   73.3     8    7.3   132     13.4   850.8    0.00     393    67.9
 122   15:30   73.0     8    3.8   106      8.2   850.7    0.00     381    67.8
 122   15:40   73.3     7    9.5   153     18.3   850.6    0.00     299    67.5
 122   15:50   72.4     7    8.2   168     15.9   850.6    0.00     222    67.7
 122   16:00   72.4     7   10.1   158     16.1   850.5    0.00     211    68.1
 122   16:10   72.3     7    9.7   176     17.2   850.4    0.00     231    68.1
 122   16:20   72.4     7   11.0   164     16.6   850.3    0.00     238    67.8
 122   16:30   72.5     7    9.8   165     14.7   850.2    0.00     247    67.8
 122   16:40   72.7     7   10.6   168     15.7   850.1    0.00     229    68.0
 122   16:50   72.2     7   11.1   165     16.0   850.1    0.00     186    67.9
 122   17:00   71.7     7    9.8   162     13.4   850.0    0.00     132    68.0
 122   17:10   71.6     7   10.4   167     14.0   849.9    0.00     105    67.9
 122   17:20   71.3     7    9.4   156     12.9   849.8    0.00      86    67.8
 122   17:30   71.0     7   10.1   156     13.8   849.7    0.00      73    67.9
 122   17:40   70.7     7    9.8   165     13.6   849.6    0.00      58    67.5
 122   17:50   70.3     7    9.5   157     12.0   849.5    0.00      45    67.6
 122   18:00   69.7     8    9.0   156     10.8   849.4    0.00      36    67.6
 122   18:10   69.0     8    8.4   156     10.7   849.3    0.00      28    67.6
 122   18:20   67.8     8    8.3   158     10.0   849.2    0.00      15    67.3
 122   18:30   66.1     9    8.6   156     10.9   849.1    0.00       7    67.4
 122   18:40   64.6     9    9.9   160     11.6   849.0    0.00       3    67.0
 122   18:50   63.3    10   10.0   164     11.8   848.9    0.00       1    67.0
 122   19:00   63.0    10   10.8   161     12.4   848.8    0.00       0    66.7
 122   19:10   61.5    10   10.0   164     12.1   848.8    0.00       0    66.6
 122   19:20   60.7    11   11.9   168     13.4   848.8    0.00       0    66.8
 122   19:30   61.4    10   11.2   167     13.7   848.7    0.00       0    66.1
 122   19:40   60.9    11   11.0   168     12.8   849.0    0.00       0    66.1
 122   19:50   60.0    11    9.0   165     11.5   849.4    0.00       0    66.1
 122   20:00   60.0    11   11.1   168     13.4   849.2    0.00       0    66.0
 122   20:10   60.4    10   12.1   171     15.9   848.8    0.00       0    65.8
 122   20:20   61.8    10   14.7   177     16.7   848.9    0.00       0    65.5
 122   20:30   61.4    10   13.9   176     16.4   849.0    0.00       0    65.2
 122   20:40   61.2    10   13.3   172     15.3   849.1    0.00       0    65.1
 122   20:50   61.9    10   15.2   174     17.9   849.1    0.00       0    64.6
 122   21:00   61.2    11   13.2   164     16.9   849.2    0.00       0    64.7
 122   21:10   60.7    11   12.4   166     17.2   849.2    0.00       0    64.4
 122   21:20   61.2    11   13.2   155     16.4   849.2    0.00       0    64.3

Return to St. George, Utah graphs page.


Western Regional Climate Center,wrcc@dri.edu